Time;durP1;ratioP1;P1;durP2;ratioP2;P2;SDS_P1;SDS_P2;PMS_P1;PMS_P2;Temp;Humidity;BMP_temperature;BMP_pressure;BME280_temperature;BME280_humidity;BME280_pressure;Samples;Min_cycle;Max_cycle;Signal;HPM_P1;HPM_P2
2023/06/27 00:00:54;;;;;;;2.70;1.90;;;24.90;39.80;;;;;;5069841;27;20471;-88
2023/06/27 00:03:24;;;;;;;3.10;2.47;;;24.90;40.00;;;;;;5072042;28;20445;-89
2023/06/27 00:05:51;;;;;;;4.50;2.00;;;24.90;40.30;;;;;;5075838;28;21106;-89
2023/06/27 00:08:19;;;;;;;2.67;1.67;;;24.90;40.30;;;;;;5073867;27;20437;-90
2023/06/27 00:10:46;;;;;;;2.63;1.50;;;24.90;40.40;;;;;;5086391;28;20576;-90
2023/06/27 00:13:16;;;;;;;9.63;2.03;;;24.80;40.40;;;;;;5053086;28;21007;-89
2023/06/27 00:15:44;;;;;;;2.47;1.97;;;24.70;40.10;;;;;;5063943;28;20869;-89
2023/06/27 00:18:11;;;;;;;2.60;1.70;;;24.70;40.50;;;;;;5086199;28;20463;-89
2023/06/27 00:20:38;;;;;;;4.43;2.27;;;24.70;40.40;;;;;;5063364;28;20990;-89
2023/06/27 00:23:18;;;;;;;2.60;2.03;;;24.60;40.70;;;;;;5079676;28;20440;-91
2023/06/27 00:25:46;;;;;;;5.57;2.13;;;24.60;40.20;;;;;;5053313;28;20483;-90
2023/06/27 00:28:14;;;;;;;3.37;2.07;;;24.60;40.40;;;;;;5047801;28;20454;-89
2023/06/27 00:30:41;;;;;;;2.03;1.50;;;24.20;39.60;;;;;;5083917;28;20946;-90
2023/06/27 00:33:10;;;;;;;2.20;1.70;;;24.10;40.00;;;;;;5062072;28;20467;-89
2023/06/27 00:35:39;;;;;;;3.07;1.70;;;24.20;40.60;;;;;;5082150;28;20443;-89
2023/06/27 00:38:07;;;;;;;2.50;1.63;;;24.30;40.40;;;;;;5081828;28;20903;-89
2023/06/27 00:40:34;;;;;;;2.20;1.90;;;24.30;40.10;;;;;;5071761;28;20535;-88
2023/06/27 00:43:01;;;;;;;2.13;1.93;;;24.30;41.30;;;;;;5093056;28;21168;-90
2023/06/27 00:45:31;;;;;;;2.90;1.80;;;24.30;40.30;;;;;;5095674;28;20515;-89
2023/06/27 00:48:00;;;;;;;5.17;1.90;;;23.90;40.40;;;;;;5043409;27;20836;-88
2023/06/27 00:50:27;;;;;;;3.40;1.80;;;23.90;40.60;;;;;;5057556;28;20452;-89
2023/06/27 00:52:56;;;;;;;1.70;1.60;;;23.30;41.50;;;;;;5051774;28;20213;-88
2023/06/27 00:55:23;;;;;;;4.20;1.90;;;23.30;41.30;;;;;;5070804;28;20523;-89
2023/06/27 00:57:53;;;;;;;4.23;1.83;;;23.30;41.40;;;;;;5090785;28;20223;-91
2023/06/27 01:00:21;;;;;;;4.23;2.20;;;23.50;41.90;;;;;;5081821;28;20456;-89
2023/06/27 01:02:49;;;;;;;3.58;2.08;;;23.70;42.10;;;;;;5047154;28;20565;-89
2023/06/27 01:05:19;;;;;;;2.60;1.60;;;23.80;41.90;;;;;;5097428;28;20731;-88
2023/06/27 01:07:52;;;;;;;2.00;1.60;;;23.90;41.60;;;;;;5110401;27;21194;-89
2023/06/27 01:10:27;;;;;;;2.17;1.67;;;23.90;41.50;;;;;;5103991;28;20534;-90
2023/06/27 01:13:03;;;;;;;6.23;1.80;;;23.90;41.80;;;;;;5059544;28;20462;-89
2023/06/27 01:15:31;;;;;;;3.87;2.03;;;23.80;40.90;;;;;;5053824;28;20447;-89
2023/06/27 01:18:00;;;;;;;3.50;2.47;;;23.80;41.90;;;;;;5062351;28;20452;-89
2023/06/27 01:20:27;;;;;;;5.63;1.47;;;23.80;41.20;;;;;;5078456;28;20456;-89
2023/06/27 01:23:04;;;;;;;1.87;1.60;;;23.70;40.80;;;;;;5091292;28;20464;-88
2023/06/27 01:25:33;;;;;;;2.47;2.13;;;23.70;41.30;;;;;;5054728;28;20471;-89
2023/06/27 01:28:00;;;;;;;1.43;1.33;;;23.70;42.00;;;;;;5088139;28;20201;-88
2023/06/27 01:30:27;;;;;;;2.43;1.73;;;23.70;41.80;;;;;;5045286;28;21556;-89
2023/06/27 01:32:59;;;;;;;1.97;1.70;;;23.70;41.70;;;;;;5083077;28;20464;-88
2023/06/27 01:35:33;;;;;;;4.45;1.65;;;23.70;41.40;;;;;;5080809;28;21022;-88
2023/06/27 01:38:05;;;;;;;3.33;1.93;;;23.70;41.90;;;;;;5059703;28;20209;-88
2023/06/27 01:40:37;;;;;;;2.23;1.60;;;23.70;41.50;;;;;;5063118;28;20439;-88
2023/06/27 01:43:10;;;;;;;2.20;1.80;;;23.70;41.10;;;;;;5069034;28;20443;-89
2023/06/27 01:45:39;;;;;;;2.80;1.83;;;23.60;40.80;;;;;;5061353;28;20542;-88
2023/06/27 01:48:07;;;;;;;1.73;1.63;;;23.50;41.50;;;;;;5066088;28;20447;-89
2023/06/27 01:50:35;;;;;;;3.20;1.90;;;23.30;40.70;;;;;;5067531;28;20822;-89
2023/06/27 01:53:02;;;;;;;5.20;1.93;;;23.20;42.10;;;;;;5083226;28;20463;-89
2023/06/27 01:55:32;;;;;;;3.30;1.80;;;23.20;42.90;;;;;;5053224;28;20442;-87
2023/06/27 01:58:01;;;;;;;2.80;1.70;;;23.20;42.40;;;;;;5093876;27;20478;-88
2023/06/27 02:00:29;;;;;;;5.30;1.90;;;23.20;42.50;;;;;;5095857;28;20482;-89
2023/06/27 02:02:56;;;;;;;2.67;1.80;;;23.00;41.70;;;;;;5080091;28;20500;-88
2023/06/27 02:05:24;;;;;;;2.60;1.80;;;23.00;42.80;;;;;;5091763;27;20457;-88
2023/06/27 02:07:51;;;;;;;2.80;2.17;;;23.00;42.20;;;;;;5077789;28;20565;-88
2023/06/27 02:10:19;;;;;;;3.00;2.17;;;22.90;42.70;;;;;;5050701;28;20444;-90
2023/06/27 02:12:45;;;;;;;3.05;1.90;;;22.80;42.50;;;;;;5059197;28;20476;-89
2023/06/27 02:15:15;;;;;;;2.07;1.90;;;22.70;43.00;;;;;;5083897;28;20197;-88
2023/06/27 02:17:42;;;;;;;6.10;2.13;;;22.80;43.30;;;;;;5079841;28;20439;-89
2023/06/27 02:20:09;;;;;;;4.97;1.87;;;22.70;41.80;;;;;;5047438;28;20507;-88
2023/06/27 02:22:37;;;;;;;2.80;1.70;;;22.70;42.90;;;;;;5075925;28;20906;-88
2023/06/27 02:25:07;;;;;;;2.57;1.77;;;22.60;42.90;;;;;;5092627;28;20739;-89
2023/06/27 02:27:34;;;;;;;2.05;1.85;;;22.60;42.40;;;;;;5051691;28;20509;-88
2023/06/27 02:30:01;;;;;;;4.00;2.00;;;22.40;42.10;;;;;;5081682;28;20292;-89
2023/06/27 02:32:32;;;;;;;3.50;1.67;;;22.40;42.90;;;;;;5075861;28;20472;-89
2023/06/27 02:34:59;;;;;;;3.20;1.80;;;22.50;43.90;;;;;;5084227;28;20852;-89
2023/06/27 02:37:26;;;;;;;3.57;2.07;;;22.50;43.00;;;;;;5075550;28;20451;-90
2023/06/27 02:39:54;;;;;;;3.10;1.57;;;22.50;43.10;;;;;;5079227;28;20458;-90
2023/06/27 02:42:22;;;;;;;3.42;1.90;;;22.40;42.50;;;;;;5075598;28;20565;-89
2023/06/27 02:44:49;;;;;;;2.30;1.90;;;22.40;43.30;;;;;;5073675;28;20254;-89
2023/06/27 02:47:16;;;;;;;2.20;1.80;;;22.40;42.40;;;;;;5050545;28;20507;-89
2023/06/27 02:49:45;;;;;;;3.40;1.80;;;22.40;42.60;;;;;;5072990;28;20448;-90
2023/06/27 02:52:12;;;;;;;2.00;1.80;;;22.40;43.30;;;;;;5092845;28;20479;-88
2023/06/27 02:54:39;;;;;;;3.30;1.80;;;22.30;43.40;;;;;;5048784;28;20448;-88
2023/06/27 02:57:07;;;;;;;3.60;1.90;;;22.30;42.50;;;;;;5081522;28;20451;-89
2023/06/27 02:59:36;;;;;;;2.87;1.80;;;22.30;42.90;;;;;;5097116;28;20962;-89
2023/06/27 03:02:04;;;;;;;2.47;1.90;;;22.30;43.00;;;;;;5054496;28;20463;-89
2023/06/27 03:04:32;;;;;;;2.97;2.10;;;22.20;42.60;;;;;;5051893;28;20459;-88
2023/06/27 03:07:00;;;;;;;3.20;2.40;;;22.20;43.00;;;;;;5061145;28;20508;-89
2023/06/27 03:09:27;;;;;;;2.77;2.10;;;22.20;43.30;;;;;;5059395;28;20534;-89
2023/06/27 03:11:54;;;;;;;4.03;1.90;;;22.00;43.20;;;;;;5079330;28;20916;-89
2023/06/27 03:14:25;;;;;;;4.17;1.83;;;22.00;44.10;;;;;;5056890;28;20470;-88
2023/06/27 03:16:54;;;;;;;2.13;1.60;;;22.00;44.00;;;;;;5048063;28;20459;-91
2023/06/27 03:19:21;;;;;;;2.13;1.70;;;22.10;43.80;;;;;;5050492;28;20476;-90
2023/06/27 03:21:48;;;;;;;3.22;2.10;;;22.10;43.50;;;;;;5075930;28;20474;-88
2023/06/27 03:24:17;;;;;;;3.63;2.00;;;22.00;44.20;;;;;;5086087;28;20182;-89
2023/06/27 03:26:48;;;;;;;3.30;1.80;;;22.10;44.20;;;;;;5080894;28;20554;-87
2023/06/27 03:29:15;;;;;;;2.43;1.93;;;21.80;43.50;;;;;;5088626;27;20453;-89
2023/06/27 03:31:42;;;;;;;2.90;1.83;;;21.20;44.30;;;;;;5079408;28;20569;-90
2023/06/27 03:34:10;;;;;;;2.20;1.90;;;21.40;45.10;;;;;;5093745;27;20362;-90
2023/06/27 03:36:37;;;;;;;3.72;1.95;;;21.60;44.90;;;;;;5096862;28;20455;-89
2023/06/27 03:39:04;;;;;;;2.47;1.90;;;21.80;44.70;;;;;;5055300;28;21047;-89
2023/06/27 03:41:33;;;;;;;8.70;2.07;;;21.90;44.70;;;;;;5081486;28;20791;-88
2023/06/27 03:44:00;;;;;;;3.83;1.67;;;21.90;44.60;;;;;;5080413;28;20443;-89
2023/06/27 03:46:27;;;;;;;2.20;2.00;;;22.00;44.70;;;;;;5081841;28;20529;-88
2023/06/27 03:48:58;;;;;;;2.70;1.97;;;21.80;44.00;;;;;;5080941;28;20444;-89
2023/06/27 03:51:25;;;;;;;4.13;1.87;;;21.50;44.30;;;;;;5053796;28;20895;-89
2023/06/27 03:53:52;;;;;;;4.03;2.17;;;21.60;45.30;;;;;;5055136;28;20475;-89
2023/06/27 03:56:19;;;;;;;2.17;1.97;;;21.20;45.00;;;;;;5072258;28;21000;-88
2023/06/27 03:58:48;;;;;;;3.40;1.70;;;21.20;45.10;;;;;;5066670;28;20756;-89
2023/06/27 04:01:15;;;;;;;2.17;1.63;;;21.20;45.20;;;;;;5085764;27;20462;-89
2023/06/27 04:03:42;;;;;;;2.40;2.20;;;21.00;45.90;;;;;;5087677;28;20443;-89
2023/06/27 04:06:09;;;;;;;2.43;2.00;;;20.60;46.70;;;;;;5054576;27;20474;-89
2023/06/27 04:08:37;;;;;;;2.40;2.20;;;20.60;47.00;;;;;;5080230;28;20546;-89
2023/06/27 04:11:04;;;;;;;4.90;2.70;;;20.90;46.50;;;;;;5100684;27;20470;-90
2023/06/27 04:13:31;;;;;;;2.13;1.93;;;21.00;46.20;;;;;;5096134;27;20463;-89
2023/06/27 04:16:00;;;;;;;2.83;2.07;;;21.20;46.30;;;;;;5060003;27;20906;-89
2023/06/27 04:18:27;;;;;;;2.13;2.03;;;21.40;45.90;;;;;;5064422;28;20450;-89
2023/06/27 04:20:54;;;;;;;3.57;2.30;;;21.60;45.90;;;;;;5066416;28;20219;-88
2023/06/27 04:23:21;;;;;;;3.60;1.80;;;21.70;45.90;;;;;;5078187;28;20436;-88
2023/06/27 04:26:02;;;;;;;1.73;1.63;;;21.90;46.10;;;;;;5079072;28;20447;-89
2023/06/27 04:28:30;;;;;;;6.83;2.33;;;21.90;45.90;;;;;;5070615;28;20439;-89
2023/06/27 04:30:57;;;;;;;2.70;2.50;;;22.00;45.90;;;;;;5048610;27;20669;-89
2023/06/27 04:33:27;;;;;;;2.63;1.87;;;22.10;45.70;;;;;;5086383;28;20470;-90
2023/06/27 04:35:54;;;;;;;2.47;2.27;;;22.10;45.90;;;;;;5064304;28;20446;-89
2023/06/27 04:38:21;;;;;;;3.60;2.00;;;22.20;45.70;;;;;;5062560;28;20451;-90
2023/06/27 04:40:48;;;;;;;2.90;2.30;;;22.20;46.00;;;;;;5066452;28;20448;-90
2023/06/27 04:43:17;;;;;;;2.33;1.73;;;22.30;45.90;;;;;;5069767;28;20432;-90
2023/06/27 04:45:45;;;;;;;3.97;2.38;;;22.30;45.60;;;;;;5088572;28;20854;-91
2023/06/27 04:48:11;;;;;;;3.00;1.83;;;22.30;45.50;;;;;;5053705;28;20193;-90
2023/06/27 04:50:40;;;;;;;2.90;2.30;;;22.30;46.00;;;;;;5072066;28;20799;-91
2023/06/27 04:53:07;;;;;;;2.77;2.57;;;22.30;46.20;;;;;;5086377;28;20460;-90
2023/06/27 04:55:34;;;;;;;3.80;1.90;;;22.30;46.00;;;;;;5084622;28;20444;-92
2023/06/27 04:58:01;;;;;;;3.40;2.40;;;22.40;46.40;;;;;;5056177;28;20446;-91
2023/06/27 05:00:28;;;;;;;3.77;2.20;;;22.40;46.70;;;;;;5055142;28;22220;-90
2023/06/27 05:02:56;;;;;;;2.80;1.90;;;22.50;47.40;;;;;;5051636;28;20473;-90
2023/06/27 05:05:24;;;;;;;6.73;3.10;;;22.40;47.10;;;;;;5078213;28;20457;-90
2023/06/27 05:07:53;;;;;;;3.90;2.47;;;22.50;47.30;;;;;;5076086;28;20539;-90
2023/06/27 05:10:20;;;;;;;2.40;2.20;;;22.60;47.60;;;;;;5089211;28;20447;-91
2023/06/27 05:12:47;;;;;;;3.10;1.83;;;22.60;47.70;;;;;;5052798;28;20478;-90
2023/06/27 05:15:14;;;;;;;3.00;2.33;;;22.60;47.40;;;;;;5048583;28;20819;-89
2023/06/27 05:17:52;;;;;;;2.03;1.83;;;22.60;47.50;;;;;;5047817;28;20435;-89
2023/06/27 05:20:19;;;;;;;3.70;2.63;;;22.70;47.50;;;;;;5072892;28;20569;-89
2023/06/27 05:22:46;;;;;;;3.00;2.33;;;22.70;47.30;;;;;;5085468;28;20574;-90
2023/06/27 05:25:14;;;;;;;5.80;2.40;;;22.70;47.20;;;;;;5076956;27;20458;-90
2023/06/27 05:27:41;;;;;;;2.90;2.43;;;22.60;48.00;;;;;;5081791;28;20455;-90
2023/06/27 05:30:09;;;;;;;4.30;2.20;;;22.60;48.40;;;;;;5053945;27;20538;-90
2023/06/27 05:32:36;;;;;;;3.53;2.30;;;22.70;48.40;;;;;;5047076;28;21030;-89
2023/06/27 05:35:03;;;;;;;3.10;2.20;;;22.70;48.20;;;;;;5075584;28;20470;-88
2023/06/27 05:37:30;;;;;;;6.90;2.63;;;22.70;48.20;;;;;;5051858;28;20540;-90
2023/06/27 05:39:58;;;;;;;3.10;2.60;;;22.80;48.40;;;;;;5054721;27;20439;-89
2023/06/27 05:42:26;;;;;;;2.53;2.30;;;22.70;48.00;;;;;;5042051;28;20472;-89
2023/06/27 05:44:53;;;;;;;2.60;2.27;;;22.60;48.20;;;;;;5085979;28;20447;-89
2023/06/27 05:47:20;;;;;;;3.93;2.60;;;22.30;48.70;;;;;;5070886;28;20442;-89
2023/06/27 05:49:47;;;;;;;4.68;2.55;;;22.30;49.20;;;;;;5052923;28;20443;-88
2023/06/27 05:52:14;;;;;;;3.55;2.40;;;22.40;49.10;;;;;;5060100;28;20223;-87
2023/06/27 05:54:42;;;;;;;2.10;2.00;;;22.50;48.40;;;;;;5085042;28;20217;-89
2023/06/27 05:57:09;;;;;;;6.97;1.90;;;22.50;48.70;;;;;;5093563;27;20456;-89
2023/06/27 05:59:38;;;;;;;2.63;2.20;;;22.60;48.20;;;;;;5054710;28;20514;-88
2023/06/27 06:02:05;;;;;;;3.97;3.20;;;22.70;48.30;;;;;;5076126;28;20456;-90
2023/06/27 06:04:32;;;;;;;5.50;2.43;;;22.90;48.60;;;;;;5078439;28;20737;-88
2023/06/27 06:06:59;;;;;;;4.60;2.40;;;23.00;48.30;;;;;;5075206;28;20454;-89
2023/06/27 06:09:26;;;;;;;4.40;1.97;;;23.20;48.10;;;;;;5079511;28;20432;-88
2023/06/27 06:11:53;;;;;;;3.23;2.00;;;23.10;48.30;;;;;;5064202;28;20474;-89
2023/06/27 06:14:20;;;;;;;5.83;3.23;;;23.20;48.20;;;;;;5052472;28;20491;-89
2023/06/27 06:16:49;;;;;;;3.17;2.17;;;23.00;46.90;;;;;;5054838;28;20551;-90
2023/06/27 06:19:16;;;;;;;2.30;1.93;;;23.20;47.80;;;;;;5060920;27;20452;-89
2023/06/27 06:21:44;;;;;;;4.50;2.13;;;23.30;47.10;;;;;;5074963;28;20499;-87
2023/06/27 06:24:11;;;;;;;3.03;2.50;;;23.30;47.20;;;;;;5110728;27;20446;-89
2023/06/27 06:26:38;;;;;;;4.17;2.10;;;23.30;46.30;;;;;;5071890;28;20613;-88
2023/06/27 06:29:05;;;;;;;3.13;1.77;;;23.20;45.50;;;;;;5084941;28;21027;-87
2023/06/27 06:31:32;;;;;;;2.27;1.80;;;23.20;45.30;;;;;;5109232;27;20464;-88
2023/06/27 06:34:00;;;;;;;3.33;1.73;;;23.30;44.70;;;;;;5060956;27;20470;-88
2023/06/27 06:36:27;;;;;;;6.00;2.10;;;23.30;44.00;;;;;;5057228;27;20440;-89
2023/06/27 06:38:54;;;;;;;3.23;1.93;;;23.30;44.00;;;;;;5091845;28;20609;-89
2023/06/27 06:41:22;;;;;;;2.77;1.50;;;23.50;44.80;;;;;;5088965;27;20834;-88
2023/06/27 06:43:48;;;;;;;2.33;1.77;;;23.60;43.80;;;;;;5090316;28;20438;-89
2023/06/27 06:46:16;;;;;;;1.60;1.50;;;23.70;44.10;;;;;;5086273;27;20524;-88
2023/06/27 06:48:43;;;;;;;5.00;2.15;;;23.80;43.70;;;;;;5054332;28;20839;-88
2023/06/27 06:51:11;;;;;;;2.50;2.20;;;23.80;44.60;;;;;;5066528;27;20228;-87
2023/06/27 06:53:39;;;;;;;7.40;2.00;;;23.70;44.60;;;;;;5068952;27;20467;-88
2023/06/27 06:56:06;;;;;;;2.57;2.13;;;23.80;44.70;;;;;;5064514;27;20456;-89
2023/06/27 06:58:33;;;;;;;3.10;2.10;;;23.70;44.40;;;;;;5057230;27;20535;-88
2023/06/27 07:01:00;;;;;;;3.67;1.83;;;23.90;44.80;;;;;;5047132;27;20294;-84
2023/06/27 07:03:27;;;;;;;3.00;1.80;;;24.10;43.70;;;;;;5073606;27;20450;-88
2023/06/27 07:05:54;;;;;;;2.03;1.83;;;23.90;43.80;;;;;;5071997;28;20454;-88
2023/06/27 07:08:23;;;;;;;5.03;1.60;;;23.80;44.30;;;;;;5070415;27;20458;-88
2023/06/27 07:10:50;;;;;;;2.70;1.73;;;23.70;43.70;;;;;;5099203;27;20482;-89
2023/06/27 07:13:17;;;;;;;6.00;2.23;;;23.70;44.20;;;;;;5057990;27;20509;-88
2023/06/27 07:15:45;;;;;;;1.80;1.50;;;23.70;44.40;;;;;;5057588;28;20574;-88
2023/06/27 07:18:12;;;;;;;4.30;2.00;;;23.90;45.00;;;;;;5079817;27;20450;-89
2023/06/27 07:20:38;;;;;;;2.13;1.57;;;24.10;43.90;;;;;;5061444;28;20454;-87
2023/06/27 07:23:05;;;;;;;2.50;1.60;;;24.10;43.30;;;;;;5069088;28;20453;-87
2023/06/27 07:25:35;;;;;;;1.70;1.60;;;24.30;43.20;;;;;;5075016;27;20820;-88
2023/06/27 07:28:02;;;;;;;1.73;1.43;;;24.30;42.30;;;;;;5097257;27;20442;-88
2023/06/27 07:30:29;;;;;;;1.83;1.60;;;24.50;42.20;;;;;;5070565;27;20836;-87
2023/06/27 07:32:56;;;;;;;5.97;1.85;;;24.70;41.80;;;;;;5083680;28;20470;-88
2023/06/27 07:35:23;;;;;;;2.97;1.93;;;24.80;41.60;;;;;;5088205;27;20219;-88
2023/06/27 07:37:50;;;;;;;2.43;2.00;;;25.00;40.50;;;;;;5052260;28;20453;-88
2023/06/27 07:40:18;;;;;;;3.47;1.63;;;25.00;40.40;;;;;;5055333;27;20922;-89
2023/06/27 07:42:46;;;;;;;2.67;1.60;;;24.90;40.60;;;;;;5085135;28;20547;-88
2023/06/27 07:45:13;;;;;;;1.87;1.77;;;24.90;41.20;;;;;;5057197;28;20496;-88
2023/06/27 07:47:40;;;;;;;4.23;1.90;;;24.90;41.10;;;;;;5115971;27;20453;-89
2023/06/27 07:50:07;;;;;;;3.20;1.97;;;25.10;40.70;;;;;;5064139;27;20932;-89
2023/06/27 07:52:35;;;;;;;3.47;1.80;;;25.20;39.80;;;;;;5087372;28;20493;-89
2023/06/27 07:55:02;;;;;;;3.80;2.30;;;25.30;40.30;;;;;;5085684;28;20554;-89
2023/06/27 07:57:29;;;;;;;2.40;1.67;;;25.40;39.60;;;;;;5092252;28;20995;-88
2023/06/27 07:59:58;;;;;;;1.90;1.70;;;25.30;39.70;;;;;;5085233;28;20450;-87
2023/06/27 08:02:26;;;;;;;4.23;1.90;;;25.50;40.10;;;;;;5053467;28;20498;-86
2023/06/27 08:04:52;;;;;;;5.30;1.70;;;25.80;39.70;;;;;;5087349;28;20446;-87
2023/06/27 08:07:19;;;;;;;4.30;2.10;;;26.00;37.70;;;;;;5062983;28;20458;-87
2023/06/27 08:09:46;;;;;;;2.20;1.60;;;26.00;37.90;;;;;;5047187;28;20527;-87
2023/06/27 08:12:14;;;;;;;4.30;1.97;;;25.70;37.10;;;;;;5074432;28;20718;-89
2023/06/27 08:14:42;;;;;;;4.03;1.77;;;25.50;38.40;;;;;;5088266;28;20472;-88
2023/06/27 08:17:10;;;;;;;2.83;1.70;;;25.80;39.20;;;;;;5080230;27;20442;-86
2023/06/27 08:19:37;;;;;;;3.03;1.87;;;25.90;37.40;;;;;;5053411;28;20493;-88
2023/06/27 08:22:04;;;;;;;4.18;1.92;;;26.10;36.50;;;;;;5077024;28;20639;-88
2023/06/27 08:24:31;;;;;;;3.33;1.40;;;26.10;37.40;;;;;;5070549;28;20189;-88
2023/06/27 08:26:58;;;;;;;3.20;1.60;;;26.10;37.00;;;;;;5052544;28;21257;-89
2023/06/27 08:29:26;;;;;;;1.37;1.27;;;26.20;35.70;;;;;;5083505;28;20448;-88
2023/06/27 08:31:58;;;;;;;2.90;1.50;;;26.30;35.80;;;;;;5080456;28;20514;-90
2023/06/27 08:34:28;;;;;;;4.40;1.50;;;26.30;36.90;;;;;;5068917;28;20498;-87
2023/06/27 08:36:55;;;;;;;2.30;1.57;;;26.40;36.20;;;;;;5091230;28;20501;-87
2023/06/27 08:39:22;;;;;;;2.07;1.63;;;26.60;36.30;;;;;;5081983;28;20454;-87
2023/06/27 08:41:50;;;;;;;4.13;1.73;;;26.90;35.50;;;;;;5051948;28;21089;-87
2023/06/27 08:44:17;;;;;;;4.30;1.80;;;26.60;34.30;;;;;;5071965;28;20542;-87
2023/06/27 08:46:47;;;;;;;3.70;1.70;;;26.50;34.80;;;;;;5050936;28;20449;-87
2023/06/27 08:49:20;;;;;;;6.67;1.87;;;26.50;36.30;;;;;;5096203;27;20449;-87
2023/06/27 08:51:50;;;;;;;1.73;1.60;;;26.40;35.90;;;;;;5053672;28;20459;-88
2023/06/27 08:54:24;;;;;;;1.60;1.33;;;26.30;35.50;;;;;;5084443;28;20483;-87
2023/06/27 08:56:53;;;;;;;3.10;1.63;;;26.30;35.60;;;;;;5074372;28;20540;-87
2023/06/27 08:59:24;;;;;;;6.97;1.87;;;26.50;35.90;;;;;;5076501;28;20454;-88
2023/06/27 09:01:53;;;;;;;2.00;1.90;;;26.50;35.70;;;;;;5088947;28;20495;-86
2023/06/27 09:04:20;;;;;;;1.60;1.50;;;26.70;35.00;;;;;;5049979;28;20446;-89
2023/06/27 09:06:47;;;;;;;3.43;1.63;;;27.00;36.60;;;;;;5099064;27;20447;-88
2023/06/27 09:09:16;;;;;;;2.60;1.60;;;27.30;35.00;;;;;;5047473;28;20449;-87
2023/06/27 09:11:44;;;;;;;2.03;1.83;;;27.80;34.00;;;;;;5075298;28;20499;-87
2023/06/27 09:14:11;;;;;;;3.23;1.73;;;27.20;34.60;;;;;;5074048;28;20459;-86
2023/06/27 09:16:39;;;;;;;1.85;1.60;;;27.30;35.80;;;;;;5091842;28;20447;-86
2023/06/27 09:19:06;;;;;;;2.50;1.40;;;27.10;35.00;;;;;;5047362;28;20225;-86
2023/06/27 09:21:34;;;;;;;2.20;1.73;;;27.30;35.70;;;;;;5043548;28;20893;-87
2023/06/27 09:24:06;;;;;;;1.60;1.30;;;27.40;33.70;;;;;;5060062;28;20957;-86
2023/06/27 09:26:34;;;;;;;2.73;1.80;;;27.40;33.80;;;;;;5049870;28;20866;-87
2023/06/27 09:29:01;;;;;;;2.50;1.50;;;27.40;34.30;;;;;;5062296;28;20459;-89
2023/06/27 09:31:30;;;;;;;2.37;1.50;;;27.60;33.10;;;;;;5051304;28;20479;-88
2023/06/27 09:34:09;;;;;;;2.30;1.50;;;27.70;34.00;;;;;;5062635;28;20514;-87
2023/06/27 09:36:37;;;;;;;2.10;1.40;;;28.20;32.80;;;;;;5049593;28;20532;-87
2023/06/27 09:39:05;;;;;;;3.73;1.90;;;27.90;31.90;;;;;;5092676;28;20505;-86
2023/06/27 09:41:44;;;;;;;2.80;1.60;;;27.70;33.50;;;;;;5066254;28;20990;-87
2023/06/27 09:44:13;;;;;;;1.80;1.67;;;27.50;33.00;;;;;;5079566;28;20468;-86
2023/06/27 09:46:41;;;;;;;3.87;1.70;;;27.40;33.40;;;;;;5041454;28;20947;-86
2023/06/27 09:49:09;;;;;;;3.07;1.40;;;27.10;33.70;;;;;;5078003;28;20545;-85
2023/06/27 09:51:36;;;;;;;1.90;1.43;;;26.90;34.00;;;;;;5064198;28;21018;-86
2023/06/27 09:54:04;;;;;;;1.85;1.65;;;26.70;33.60;;;;;;5085948;28;20451;-86
2023/06/27 09:56:32;;;;;;;1.90;1.70;;;26.40;33.10;;;;;;5087001;27;20220;-86
2023/06/27 09:59:09;;;;;;;2.70;1.20;;;26.40;33.80;;;;;;5070648;28;20447;-85
2023/06/27 10:01:37;;;;;;;1.50;1.40;;;26.60;34.10;;;;;;5070624;28;20217;-86
2023/06/27 10:04:04;;;;;;;2.55;2.00;;;26.80;34.20;;;;;;5060303;28;20982;-86
2023/06/27 10:06:32;;;;;;;2.17;1.97;;;26.90;33.40;;;;;;5043815;28;20280;-84
2023/06/27 10:08:59;;;;;;;1.90;1.43;;;27.10;33.70;;;;;;5060893;28;20813;-85
2023/06/27 10:11:27;;;;;;;1.90;1.80;;;27.20;32.30;;;;;;5067891;28;20477;-87
2023/06/27 10:13:54;;;;;;;1.80;1.50;;;27.50;31.60;;;;;;5064473;28;20446;-87
2023/06/27 10:16:23;;;;;;;1.80;1.70;;;28.00;31.90;;;;;;5073054;28;21014;-85
2023/06/27 10:18:50;;;;;;;3.13;1.70;;;28.30;31.20;;;;;;5054760;28;21049;-85
2023/06/27 10:21:18;;;;;;;2.22;1.70;;;28.30;30.70;;;;;;5062812;28;20583;-86
2023/06/27 10:23:49;;;;;;;2.43;1.80;;;27.90;30.90;;;;;;5056834;28;20209;-86
2023/06/27 10:26:19;;;;;;;2.50;2.30;;;27.90;31.60;;;;;;5048263;28;20458;-87
2023/06/27 10:28:49;;;;;;;5.00;2.23;;;27.60;31.50;;;;;;5062263;28;20457;-86
2023/06/27 10:31:42;;;;;;;3.13;2.20;;;27.40;32.70;;;;;;5079150;28;20468;-86
2023/06/27 10:34:11;;;;;;;2.70;1.90;;;27.50;31.10;;;;;;5072338;28;20452;-86
2023/06/27 10:37:01;;;;;;;5.23;1.97;;;27.40;29.80;;;;;;5036002;28;20552;-86
2023/06/27 10:39:30;;;;;;;2.17;1.80;;;27.40;31.10;;;;;;5041409;28;20455;-87
2023/06/27 10:42:01;;;;;;;4.18;2.15;;;27.50;31.60;;;;;;5085156;28;20479;-85
2023/06/27 10:44:28;;;;;;;2.78;1.67;;;27.90;31.20;;;;;;5079333;28;20270;-86
2023/06/27 10:47:30;;;;;;;2.37;1.73;;;28.00;31.40;;;;;;5062324;28;20197;-87
2023/06/27 10:50:06;;;;;;;3.43;2.00;;;27.90;29.90;;;;;;5044498;28;20979;-86
2023/06/27 10:52:34;;;;;;;2.80;1.90;;;27.60;30.60;;;;;;5048300;28;20459;-87
2023/06/27 10:55:20;;;;;;;5.30;1.93;;;27.40;30.40;;;;;;5061708;28;20564;-85
2023/06/27 10:57:56;;;;;;;1.50;1.40;;;27.70;32.10;;;;;;5057106;28;20976;-86
2023/06/27 11:00:25;;;;;;;3.05;1.60;;;27.90;32.10;;;;;;5078103;28;20935;-85
2023/06/27 11:02:55;;;;;;;2.50;1.53;;;28.00;30.30;;;;;;5062789;28;20213;-86
2023/06/27 11:05:40;;;;;;;3.30;1.57;;;28.10;30.50;;;;;;5090139;28;20439;-88
2023/06/27 11:08:11;;;;;;;2.53;1.70;;;28.00;31.80;;;;;;5084415;28;20470;-86
2023/06/27 11:10:38;;;;;;;7.37;1.77;;;27.70;31.80;;;;;;5069099;28;20455;-86
2023/06/27 11:13:16;;;;;;;2.87;1.70;;;27.80;30.90;;;;;;5046613;28;20964;-87
2023/06/27 11:15:43;;;;;;;3.20;1.73;;;27.80;29.70;;;;;;5070696;28;20799;-87
2023/06/27 11:18:12;;;;;;;2.23;1.90;;;27.90;31.30;;;;;;5049702;28;20450;-88
2023/06/27 11:20:41;;;;;;;5.33;1.90;;;28.20;32.40;;;;;;5085661;28;20459;-86
2023/06/27 11:23:08;;;;;;;4.63;1.50;;;28.10;31.00;;;;;;5043957;27;20862;-87
2023/06/27 11:25:38;;;;;;;2.00;1.80;;;28.10;30.00;;;;;;5048129;27;20446;-89
2023/06/27 11:28:06;;;;;;;2.13;1.80;;;28.00;29.60;;;;;;5078265;28;21013;-87
2023/06/27 11:30:33;;;;;;;3.43;1.60;;;28.00;30.00;;;;;;5067921;28;20815;-87
2023/06/27 11:33:01;;;;;;;3.83;2.17;;;28.00;29.60;;;;;;5062386;27;21035;-86
2023/06/27 11:35:29;;;;;;;2.70;1.90;;;28.20;29.70;;;;;;5060450;28;20471;-86
2023/06/27 11:38:00;;;;;;;2.13;1.73;;;28.20;29.80;;;;;;5073153;28;20462;-86
2023/06/27 11:40:30;;;;;;;4.63;2.00;;;28.20;28.20;;;;;;5069461;27;20445;-88
2023/06/27 11:43:03;;;;;;;2.47;2.00;;;28.00;29.30;;;;;;5065436;28;21289;-86
2023/06/27 11:45:31;;;;;;;3.00;1.70;;;28.30;29.20;;;;;;5058038;28;21001;-86
2023/06/27 11:47:58;;;;;;;2.27;1.57;;;28.80;29.60;;;;;;5073869;28;20517;-85
2023/06/27 11:50:25;;;;;;;1.70;1.60;;;28.50;29.20;;;;;;5100127;27;21024;-86
2023/06/27 11:52:53;;;;;;;2.70;1.70;;;28.80;29.80;;;;;;5056180;28;20461;-86
2023/06/27 11:55:22;;;;;;;1.30;1.20;;;29.00;28.20;;;;;;5088139;28;20459;-88
2023/06/27 11:57:52;;;;;;;2.87;1.90;;;28.80;28.80;;;;;;5038738;28;20534;-87
2023/06/27 12:00:23;;;;;;;2.17;1.80;;;28.80;28.00;;;;;;5042692;28;21231;-86
2023/06/27 12:02:52;;;;;;;3.72;1.90;;;28.80;28.80;;;;;;5088148;28;20491;-86
2023/06/27 12:05:21;;;;;;;2.13;1.50;;;29.10;29.00;;;;;;5064934;28;20197;-85
2023/06/27 12:08:01;;;;;;;2.67;2.17;;;28.90;28.90;;;;;;5047211;28;21307;-85
2023/06/27 12:10:33;;;;;;;1.40;1.30;;;28.80;29.00;;;;;;5039825;28;20935;-85
2023/06/27 12:13:02;;;;;;;1.60;1.50;;;28.80;28.60;;;;;;5087414;28;20470;-87
2023/06/27 12:15:29;;;;;;;2.77;1.90;;;28.40;28.90;;;;;;5090398;27;20463;-86
2023/06/27 12:18:01;;;;;;;4.50;1.70;;;28.40;29.90;;;;;;5047389;28;20452;-85
2023/06/27 12:20:41;;;;;;;2.33;2.13;;;28.40;29.80;;;;;;5052688;28;20296;-86
2023/06/27 12:23:08;;;;;;;2.50;1.50;;;28.70;28.80;;;;;;5057369;28;20454;-85
2023/06/27 12:25:40;;;;;;;1.77;1.67;;;28.70;29.10;;;;;;5071095;28;20523;-84
2023/06/27 12:28:12;;;;;;;3.93;1.80;;;28.90;28.30;;;;;;5064318;28;20216;-86
2023/06/27 12:30:39;;;;;;;4.97;1.97;;;29.10;27.90;;;;;;5055869;28;20538;-85
2023/06/27 12:33:08;;;;;;;3.75;2.15;;;29.00;29.00;;;;;;5080804;28;20444;-85
2023/06/27 12:35:39;;;;;;;1.97;1.77;;;29.00;27.80;;;;;;5058665;28;20308;-86
2023/06/27 12:38:06;;;;;;;3.37;1.97;;;29.30;28.30;;;;;;5080689;28;20538;-85
2023/06/27 12:40:33;;;;;;;2.08;1.80;;;29.50;28.70;;;;;;5079806;28;21155;-86
2023/06/27 12:43:03;;;;;;;1.83;1.73;;;29.60;29.20;;;;;;5047567;28;21022;-86
2023/06/27 12:45:32;;;;;;;1.97;1.60;;;29.80;29.10;;;;;;5088506;27;20539;-86
2023/06/27 12:47:59;;;;;;;2.17;1.90;;;30.00;28.50;;;;;;5038459;28;20479;-85
2023/06/27 12:50:26;;;;;;;2.47;2.03;;;30.10;26.80;;;;;;5092125;28;20469;-85
2023/06/27 12:52:55;;;;;;;2.00;1.80;;;29.80;27.60;;;;;;5048185;28;20470;-87
2023/06/27 12:55:22;;;;;;;3.05;2.25;;;29.90;28.50;;;;;;5064547;28;20279;-84